sensor_id;sensor_type;location;lat;lon;timestamp;P1;durP1;ratioP1;P2;durP2;ratioP2
69878;SDS011;57161;43.136;24.706;2024-01-16T00:01:17;12.00;;;7.25;;
69878;SDS011;57161;43.136;24.706;2024-01-16T00:03:44;13.05;;;6.85;;
69878;SDS011;57161;43.136;24.706;2024-01-16T00:06:09;14.73;;;9.85;;
69878;SDS011;57161;43.136;24.706;2024-01-16T00:08:35;18.52;;;10.48;;
69878;SDS011;57161;43.136;24.706;2024-01-16T00:11:01;16.23;;;9.90;;
69878;SDS011;57161;43.136;24.706;2024-01-16T00:13:29;14.77;;;9.48;;
69878;SDS011;57161;43.136;24.706;2024-01-16T00:15:54;19.80;;;11.70;;
69878;SDS011;57161;43.136;24.706;2024-01-16T00:18:21;18.20;;;9.70;;
69878;SDS011;57161;43.136;24.706;2024-01-16T00:20:47;44.08;;;23.67;;
69878;SDS011;57161;43.136;24.706;2024-01-16T00:23:13;22.40;;;14.00;;
69878;SDS011;57161;43.136;24.706;2024-01-16T00:25:38;18.55;;;11.05;;
69878;SDS011;57161;43.136;24.706;2024-01-16T00:28:04;13.43;;;8.48;;
69878;SDS011;57161;43.136;24.706;2024-01-16T00:30:30;10.35;;;6.82;;
69878;SDS011;57161;43.136;24.706;2024-01-16T00:32:55;7.80;;;4.47;;
69878;SDS011;57161;43.136;24.706;2024-01-16T00:35:21;7.43;;;3.80;;
69878;SDS011;57161;43.136;24.706;2024-01-16T00:37:46;3.30;;;2.63;;
69878;SDS011;57161;43.136;24.706;2024-01-16T00:40:12;4.05;;;2.40;;
69878;SDS011;57161;43.136;24.706;2024-01-16T00:42:37;3.03;;;1.90;;
69878;SDS011;57161;43.136;24.706;2024-01-16T00:45:03;3.22;;;2.50;;
69878;SDS011;57161;43.136;24.706;2024-01-16T00:47:29;5.53;;;3.35;;
69878;SDS011;57161;43.136;24.706;2024-01-16T00:49:55;4.45;;;2.95;;
69878;SDS011;57161;43.136;24.706;2024-01-16T00:52:20;9.80;;;5.47;;
69878;SDS011;57161;43.136;24.706;2024-01-16T00:54:46;17.33;;;8.85;;
69878;SDS011;57161;43.136;24.706;2024-01-16T00:57:11;10.00;;;5.35;;
69878;SDS011;57161;43.136;24.706;2024-01-16T00:59:37;7.60;;;4.05;;
69878;SDS011;57161;43.136;24.706;2024-01-16T01:02:02;4.43;;;2.72;;
69878;SDS011;57161;43.136;24.706;2024-01-16T01:04:32;8.55;;;5.10;;
69878;SDS011;57161;43.136;24.706;2024-01-16T01:06:59;10.30;;;6.28;;
69878;SDS011;57161;43.136;24.706;2024-01-16T01:09:24;13.68;;;8.75;;
69878;SDS011;57161;43.136;24.706;2024-01-16T01:11:50;18.02;;;9.95;;
69878;SDS011;57161;43.136;24.706;2024-01-16T01:14:15;21.48;;;12.95;;
69878;SDS011;57161;43.136;24.706;2024-01-16T01:16:40;21.40;;;13.77;;
69878;SDS011;57161;43.136;24.706;2024-01-16T01:19:06;28.98;;;17.35;;
69878;SDS011;57161;43.136;24.706;2024-01-16T01:21:32;28.65;;;18.63;;
69878;SDS011;57161;43.136;24.706;2024-01-16T01:23:57;22.33;;;13.82;;
69878;SDS011;57161;43.136;24.706;2024-01-16T01:26:22;17.75;;;11.10;;
69878;SDS011;57161;43.136;24.706;2024-01-16T01:28:48;16.75;;;10.77;;
69878;SDS011;57161;43.136;24.706;2024-01-16T01:31:13;53.35;;;32.90;;
69878;SDS011;57161;43.136;24.706;2024-01-16T01:33:39;33.95;;;20.48;;
69878;SDS011;57161;43.136;24.706;2024-01-16T01:36:05;26.95;;;16.85;;
69878;SDS011;57161;43.136;24.706;2024-01-16T01:38:31;23.65;;;13.00;;
69878;SDS011;57161;43.136;24.706;2024-01-16T01:40:56;24.15;;;12.63;;
69878;SDS011;57161;43.136;24.706;2024-01-16T01:43:23;51.00;;;26.77;;
69878;SDS011;57161;43.136;24.706;2024-01-16T01:46:09;44.25;;;23.45;;
69878;SDS011;57161;43.136;24.706;2024-01-16T01:48:40;27.60;;;15.15;;
69878;SDS011;57161;43.136;24.706;2024-01-16T01:51:07;15.07;;;8.50;;
69878;SDS011;57161;43.136;24.706;2024-01-16T01:53:34;16.77;;;9.80;;
69878;SDS011;57161;43.136;24.706;2024-01-16T01:56:02;14.88;;;8.65;;
69878;SDS011;57161;43.136;24.706;2024-01-16T01:58:31;17.40;;;10.30;;
69878;SDS011;57161;43.136;24.706;2024-01-16T02:00:58;20.60;;;11.95;;
69878;SDS011;57161;43.136;24.706;2024-01-16T02:03:26;24.58;;;13.15;;
69878;SDS011;57161;43.136;24.706;2024-01-16T02:05:52;25.92;;;14.35;;
69878;SDS011;57161;43.136;24.706;2024-01-16T02:08:18;26.38;;;15.30;;
69878;SDS011;57161;43.136;24.706;2024-01-16T02:10:45;24.75;;;15.00;;
69878;SDS011;57161;43.136;24.706;2024-01-16T02:13:14;29.02;;;17.50;;
69878;SDS011;57161;43.136;24.706;2024-01-16T02:15:40;35.95;;;23.88;;
69878;SDS011;57161;43.136;24.706;2024-01-16T02:18:06;34.80;;;20.58;;
69878;SDS011;57161;43.136;24.706;2024-01-16T02:20:32;35.92;;;21.58;;
69878;SDS011;57161;43.136;24.706;2024-01-16T02:22:59;39.28;;;22.00;;
69878;SDS011;57161;43.136;24.706;2024-01-16T02:25:28;31.98;;;17.45;;
69878;SDS011;57161;43.136;24.706;2024-01-16T02:27:54;33.70;;;20.38;;
69878;SDS011;57161;43.136;24.706;2024-01-16T02:30:20;37.35;;;20.55;;
69878;SDS011;57161;43.136;24.706;2024-01-16T02:32:45;38.72;;;24.33;;
69878;SDS011;57161;43.136;24.706;2024-01-16T02:35:14;41.60;;;24.67;;
69878;SDS011;57161;43.136;24.706;2024-01-16T02:37:41;46.55;;;27.70;;
69878;SDS011;57161;43.136;24.706;2024-01-16T02:40:07;53.67;;;29.15;;
69878;SDS011;57161;43.136;24.706;2024-01-16T02:42:36;50.53;;;29.85;;
69878;SDS011;57161;43.136;24.706;2024-01-16T02:45:02;46.40;;;27.17;;
69878;SDS011;57161;43.136;24.706;2024-01-16T02:47:29;56.00;;;32.08;;
69878;SDS011;57161;43.136;24.706;2024-01-16T02:49:54;57.83;;;33.97;;
69878;SDS011;57161;43.136;24.706;2024-01-16T02:52:20;53.95;;;33.03;;
69878;SDS011;57161;43.136;24.706;2024-01-16T02:54:46;58.20;;;32.88;;
69878;SDS011;57161;43.136;24.706;2024-01-16T02:57:12;52.30;;;32.28;;
69878;SDS011;57161;43.136;24.706;2024-01-16T02:59:37;60.55;;;33.08;;
69878;SDS011;57161;43.136;24.706;2024-01-16T03:02:03;57.58;;;33.67;;
69878;SDS011;57161;43.136;24.706;2024-01-16T03:04:29;57.47;;;33.92;;
69878;SDS011;57161;43.136;24.706;2024-01-16T03:06:55;61.17;;;34.42;;
69878;SDS011;57161;43.136;24.706;2024-01-16T03:09:20;58.03;;;34.50;;
69878;SDS011;57161;43.136;24.706;2024-01-16T03:11:46;59.28;;;35.42;;
69878;SDS011;57161;43.136;24.706;2024-01-16T03:14:12;54.35;;;33.08;;
69878;SDS011;57161;43.136;24.706;2024-01-16T03:16:39;56.55;;;32.65;;
69878;SDS011;57161;43.136;24.706;2024-01-16T03:19:05;56.78;;;33.13;;
69878;SDS011;57161;43.136;24.706;2024-01-16T03:21:31;60.67;;;33.97;;
69878;SDS011;57161;43.136;24.706;2024-01-16T03:23:56;57.45;;;34.28;;
69878;SDS011;57161;43.136;24.706;2024-01-16T03:26:22;52.95;;;32.83;;
69878;SDS011;57161;43.136;24.706;2024-01-16T03:28:47;54.42;;;32.75;;
69878;SDS011;57161;43.136;24.706;2024-01-16T03:31:13;54.60;;;34.63;;
69878;SDS011;57161;43.136;24.706;2024-01-16T03:33:42;53.83;;;32.38;;
69878;SDS011;57161;43.136;24.706;2024-01-16T03:36:08;53.83;;;30.90;;
69878;SDS011;57161;43.136;24.706;2024-01-16T03:38:35;47.08;;;28.25;;
69878;SDS011;57161;43.136;24.706;2024-01-16T03:41:02;43.00;;;26.60;;
69878;SDS011;57161;43.136;24.706;2024-01-16T03:43:29;44.63;;;26.67;;
69878;SDS011;57161;43.136;24.706;2024-01-16T03:45:57;41.25;;;26.35;;
69878;SDS011;57161;43.136;24.706;2024-01-16T03:48:23;45.63;;;27.10;;
69878;SDS011;57161;43.136;24.706;2024-01-16T03:50:49;46.28;;;26.65;;
69878;SDS011;57161;43.136;24.706;2024-01-16T03:53:14;42.65;;;24.00;;
69878;SDS011;57161;43.136;24.706;2024-01-16T03:55:40;36.20;;;21.52;;
69878;SDS011;57161;43.136;24.706;2024-01-16T03:58:05;36.67;;;22.05;;
69878;SDS011;57161;43.136;24.706;2024-01-16T04:00:31;34.83;;;21.92;;
69878;SDS011;57161;43.136;24.706;2024-01-16T04:02:57;33.83;;;20.55;;
69878;SDS011;57161;43.136;24.706;2024-01-16T04:05:22;34.60;;;21.42;;
69878;SDS011;57161;43.136;24.706;2024-01-16T04:07:48;32.92;;;19.77;;
69878;SDS011;57161;43.136;24.706;2024-01-16T04:10:13;29.17;;;19.00;;
69878;SDS011;57161;43.136;24.706;2024-01-16T04:12:39;31.08;;;17.48;;
69878;SDS011;57161;43.136;24.706;2024-01-16T04:15:05;30.85;;;17.88;;
69878;SDS011;57161;43.136;24.706;2024-01-16T04:17:31;31.92;;;19.50;;
69878;SDS011;57161;43.136;24.706;2024-01-16T04:19:56;30.27;;;17.65;;
69878;SDS011;57161;43.136;24.706;2024-01-16T04:22:22;28.52;;;18.25;;
69878;SDS011;57161;43.136;24.706;2024-01-16T04:24:47;27.85;;;17.98;;
69878;SDS011;57161;43.136;24.706;2024-01-16T04:27:13;28.90;;;17.77;;
69878;SDS011;57161;43.136;24.706;2024-01-16T04:29:38;28.17;;;17.27;;
69878;SDS011;57161;43.136;24.706;2024-01-16T04:32:04;30.95;;;18.45;;
69878;SDS011;57161;43.136;24.706;2024-01-16T04:34:29;27.10;;;15.45;;
69878;SDS011;57161;43.136;24.706;2024-01-16T04:36:55;24.63;;;14.70;;
69878;SDS011;57161;43.136;24.706;2024-01-16T04:39:21;22.58;;;14.55;;
69878;SDS011;57161;43.136;24.706;2024-01-16T04:41:48;23.83;;;14.93;;
69878;SDS011;57161;43.136;24.706;2024-01-16T04:44:14;20.58;;;12.80;;
69878;SDS011;57161;43.136;24.706;2024-01-16T04:46:39;16.23;;;10.57;;
69878;SDS011;57161;43.136;24.706;2024-01-16T04:49:05;18.30;;;11.38;;
69878;SDS011;57161;43.136;24.706;2024-01-16T04:51:30;15.95;;;10.55;;
69878;SDS011;57161;43.136;24.706;2024-01-16T04:53:56;18.38;;;10.68;;
69878;SDS011;57161;43.136;24.706;2024-01-16T04:56:21;16.80;;;10.38;;
69878;SDS011;57161;43.136;24.706;2024-01-16T04:58:47;15.45;;;9.45;;
69878;SDS011;57161;43.136;24.706;2024-01-16T05:01:12;11.77;;;8.48;;
69878;SDS011;57161;43.136;24.706;2024-01-16T05:03:38;13.48;;;8.30;;
69878;SDS011;57161;43.136;24.706;2024-01-16T05:06:04;14.85;;;9.48;;
69878;SDS011;57161;43.136;24.706;2024-01-16T05:08:30;14.40;;;9.48;;
69878;SDS011;57161;43.136;24.706;2024-01-16T05:10:56;13.93;;;8.90;;
69878;SDS011;57161;43.136;24.706;2024-01-16T05:13:22;15.93;;;10.32;;
69878;SDS011;57161;43.136;24.706;2024-01-16T05:15:47;15.50;;;9.77;;
69878;SDS011;57161;43.136;24.706;2024-01-16T05:18:14;14.80;;;9.10;;
69878;SDS011;57161;43.136;24.706;2024-01-16T05:20:40;15.10;;;10.23;;
69878;SDS011;57161;43.136;24.706;2024-01-16T05:23:05;16.48;;;11.55;;
69878;SDS011;57161;43.136;24.706;2024-01-16T05:25:31;12.63;;;8.07;;
69878;SDS011;57161;43.136;24.706;2024-01-16T05:27:57;14.70;;;10.05;;
69878;SDS011;57161;43.136;24.706;2024-01-16T05:30:22;10.35;;;6.47;;
69878;SDS011;57161;43.136;24.706;2024-01-16T05:32:48;13.32;;;8.38;;
69878;SDS011;57161;43.136;24.706;2024-01-16T05:35:13;12.48;;;7.60;;
69878;SDS011;57161;43.136;24.706;2024-01-16T05:37:39;14.20;;;8.73;;
69878;SDS011;57161;43.136;24.706;2024-01-16T05:40:04;10.85;;;7.90;;
69878;SDS011;57161;43.136;24.706;2024-01-16T05:42:32;9.93;;;6.63;;
69878;SDS011;57161;43.136;24.706;2024-01-16T05:44:58;17.17;;;9.70;;
69878;SDS011;57161;43.136;24.706;2024-01-16T05:47:23;15.13;;;9.60;;
69878;SDS011;57161;43.136;24.706;2024-01-16T05:49:52;14.43;;;9.20;;
69878;SDS011;57161;43.136;24.706;2024-01-16T05:52:18;13.20;;;8.50;;
69878;SDS011;57161;43.136;24.706;2024-01-16T05:54:44;9.90;;;5.88;;
69878;SDS011;57161;43.136;24.706;2024-01-16T05:57:09;18.08;;;8.52;;
69878;SDS011;57161;43.136;24.706;2024-01-16T05:59:35;21.17;;;9.82;;
69878;SDS011;57161;43.136;24.706;2024-01-16T06:02:00;20.65;;;11.23;;
69878;SDS011;57161;43.136;24.706;2024-01-16T06:04:26;20.15;;;11.40;;
69878;SDS011;57161;43.136;24.706;2024-01-16T06:06:51;25.27;;;12.07;;
69878;SDS011;57161;43.136;24.706;2024-01-16T06:09:17;11.13;;;6.68;;
69878;SDS011;57161;43.136;24.706;2024-01-16T06:11:43;6.90;;;4.05;;
69878;SDS011;57161;43.136;24.706;2024-01-16T06:14:09;9.57;;;6.03;;
69878;SDS011;57161;43.136;24.706;2024-01-16T06:16:37;6.97;;;4.20;;
69878;SDS011;57161;43.136;24.706;2024-01-16T06:19:02;7.85;;;5.03;;
69878;SDS011;57161;43.136;24.706;2024-01-16T06:21:28;9.93;;;5.72;;
69878;SDS011;57161;43.136;24.706;2024-01-16T06:23:53;7.25;;;5.03;;
69878;SDS011;57161;43.136;24.706;2024-01-16T06:26:19;19.05;;;9.63;;
69878;SDS011;57161;43.136;24.706;2024-01-16T06:28:44;10.27;;;5.60;;
69878;SDS011;57161;43.136;24.706;2024-01-16T06:31:10;10.60;;;6.43;;
69878;SDS011;57161;43.136;24.706;2024-01-16T06:33:37;11.13;;;5.57;;
69878;SDS011;57161;43.136;24.706;2024-01-16T06:36:02;8.80;;;4.90;;
69878;SDS011;57161;43.136;24.706;2024-01-16T06:38:31;8.75;;;4.93;;
69878;SDS011;57161;43.136;24.706;2024-01-16T06:40:57;6.40;;;4.55;;
69878;SDS011;57161;43.136;24.706;2024-01-16T06:43:23;4.68;;;3.08;;
69878;SDS011;57161;43.136;24.706;2024-01-16T06:45:49;6.03;;;4.20;;
69878;SDS011;57161;43.136;24.706;2024-01-16T06:48:14;5.45;;;3.50;;
69878;SDS011;57161;43.136;24.706;2024-01-16T06:50:40;8.23;;;4.68;;
69878;SDS011;57161;43.136;24.706;2024-01-16T06:53:06;9.23;;;4.88;;
69878;SDS011;57161;43.136;24.706;2024-01-16T06:55:32;8.50;;;4.95;;
69878;SDS011;57161;43.136;24.706;2024-01-16T06:57:57;5.35;;;3.35;;
69878;SDS011;57161;43.136;24.706;2024-01-16T07:00:23;4.35;;;2.42;;
69878;SDS011;57161;43.136;24.706;2024-01-16T07:02:51;2.70;;;2.15;;
69878;SDS011;57161;43.136;24.706;2024-01-16T07:05:17;4.18;;;2.65;;
69878;SDS011;57161;43.136;24.706;2024-01-16T07:07:42;3.83;;;2.67;;
69878;SDS011;57161;43.136;24.706;2024-01-16T07:10:08;4.15;;;2.72;;
69878;SDS011;57161;43.136;24.706;2024-01-16T07:12:38;5.95;;;3.30;;
69878;SDS011;57161;43.136;24.706;2024-01-16T07:15:05;6.57;;;4.00;;
69878;SDS011;57161;43.136;24.706;2024-01-16T07:17:31;6.07;;;4.05;;
69878;SDS011;57161;43.136;24.706;2024-01-16T07:19:56;4.40;;;2.65;;
69878;SDS011;57161;43.136;24.706;2024-01-16T07:22:23;14.93;;;7.68;;
69878;SDS011;57161;43.136;24.706;2024-01-16T07:24:49;5.47;;;2.72;;
69878;SDS011;57161;43.136;24.706;2024-01-16T07:27:14;5.53;;;3.33;;
69878;SDS011;57161;43.136;24.706;2024-01-16T07:29:40;10.90;;;5.90;;
69878;SDS011;57161;43.136;24.706;2024-01-16T07:32:06;11.23;;;6.30;;
69878;SDS011;57161;43.136;24.706;2024-01-16T07:34:32;28.08;;;14.82;;
69878;SDS011;57161;43.136;24.706;2024-01-16T07:36:58;6.85;;;3.90;;
69878;SDS011;57161;43.136;24.706;2024-01-16T07:39:23;18.05;;;9.48;;
69878;SDS011;57161;43.136;24.706;2024-01-16T07:41:49;20.60;;;11.15;;
69878;SDS011;57161;43.136;24.706;2024-01-16T07:44:14;5.85;;;3.90;;
69878;SDS011;57161;43.136;24.706;2024-01-16T07:46:40;10.93;;;5.95;;
69878;SDS011;57161;43.136;24.706;2024-01-16T07:49:05;13.75;;;7.35;;
69878;SDS011;57161;43.136;24.706;2024-01-16T07:51:31;6.55;;;4.05;;
69878;SDS011;57161;43.136;24.706;2024-01-16T07:54:06;5.32;;;2.88;;
69878;SDS011;57161;43.136;24.706;2024-01-16T07:56:33;6.85;;;4.68;;
69878;SDS011;57161;43.136;24.706;2024-01-16T07:58:59;5.45;;;3.15;;
69878;SDS011;57161;43.136;24.706;2024-01-16T08:01:25;7.28;;;3.90;;
69878;SDS011;57161;43.136;24.706;2024-01-16T08:03:50;8.40;;;4.97;;
69878;SDS011;57161;43.136;24.706;2024-01-16T08:06:15;11.20;;;6.70;;
69878;SDS011;57161;43.136;24.706;2024-01-16T08:08:41;6.20;;;3.20;;
69878;SDS011;57161;43.136;24.706;2024-01-16T08:11:07;11.20;;;7.30;;
69878;SDS011;57161;43.136;24.706;2024-01-16T08:13:32;15.38;;;8.88;;
69878;SDS011;57161;43.136;24.706;2024-01-16T08:15:58;13.95;;;8.00;;
69878;SDS011;57161;43.136;24.706;2024-01-16T08:18:24;9.30;;;6.05;;
69878;SDS011;57161;43.136;24.706;2024-01-16T08:20:50;6.60;;;4.20;;
69878;SDS011;57161;43.136;24.706;2024-01-16T08:23:15;4.40;;;3.08;;
69878;SDS011;57161;43.136;24.706;2024-01-16T08:25:41;9.38;;;5.07;;
69878;SDS011;57161;43.136;24.706;2024-01-16T08:28:06;4.45;;;3.38;;
69878;SDS011;57161;43.136;24.706;2024-01-16T08:30:32;9.23;;;5.25;;
69878;SDS011;57161;43.136;24.706;2024-01-16T08:32:57;9.40;;;5.05;;
69878;SDS011;57161;43.136;24.706;2024-01-16T08:35:23;11.18;;;6.30;;
69878;SDS011;57161;43.136;24.706;2024-01-16T08:37:48;11.07;;;7.07;;
69878;SDS011;57161;43.136;24.706;2024-01-16T08:40:14;4.47;;;3.30;;
69878;SDS011;57161;43.136;24.706;2024-01-16T08:42:40;5.25;;;3.20;;
69878;SDS011;57161;43.136;24.706;2024-01-16T08:45:06;7.75;;;3.83;;
69878;SDS011;57161;43.136;24.706;2024-01-16T08:47:32;4.35;;;3.10;;
69878;SDS011;57161;43.136;24.706;2024-01-16T08:49:57;8.77;;;5.32;;
69878;SDS011;57161;43.136;24.706;2024-01-16T08:52:22;95.00;;;39.55;;
69878;SDS011;57161;43.136;24.706;2024-01-16T08:54:49;136.75;;;62.47;;
69878;SDS011;57161;43.136;24.706;2024-01-16T08:57:14;105.38;;;47.35;;
69878;SDS011;57161;43.136;24.706;2024-01-16T08:59:40;55.40;;;20.17;;
69878;SDS011;57161;43.136;24.706;2024-01-16T09:02:06;21.75;;;8.50;;
69878;SDS011;57161;43.136;24.706;2024-01-16T09:04:31;85.20;;;28.42;;
69878;SDS011;57161;43.136;24.706;2024-01-16T09:06:57;116.55;;;38.45;;
69878;SDS011;57161;43.136;24.706;2024-01-16T09:09:22;76.38;;;25.38;;
69878;SDS011;57161;43.136;24.706;2024-01-16T09:11:48;11.00;;;5.68;;
69878;SDS011;57161;43.136;24.706;2024-01-16T09:14:14;35.00;;;14.18;;
69878;SDS011;57161;43.136;24.706;2024-01-16T09:16:39;25.48;;;9.20;;
69878;SDS011;57161;43.136;24.706;2024-01-16T09:19:05;35.90;;;15.07;;
69878;SDS011;57161;43.136;24.706;2024-01-16T09:21:31;15.77;;;6.05;;
69878;SDS011;57161;43.136;24.706;2024-01-16T09:23:57;51.50;;;18.88;;
69878;SDS011;57161;43.136;24.706;2024-01-16T09:26:22;38.17;;;14.40;;
69878;SDS011;57161;43.136;24.706;2024-01-16T09:28:48;66.78;;;28.70;;
69878;SDS011;57161;43.136;24.706;2024-01-16T09:31:14;25.20;;;12.82;;
69878;SDS011;57161;43.136;24.706;2024-01-16T09:33:40;36.03;;;13.82;;
69878;SDS011;57161;43.136;24.706;2024-01-16T09:36:06;17.60;;;8.27;;
69878;SDS011;57161;43.136;24.706;2024-01-16T09:38:32;24.88;;;11.23;;
69878;SDS011;57161;43.136;24.706;2024-01-16T09:40:57;20.73;;;9.82;;
69878;SDS011;57161;43.136;24.706;2024-01-16T09:43:25;9.63;;;5.70;;
69878;SDS011;57161;43.136;24.706;2024-01-16T09:45:52;19.15;;;6.28;;
69878;SDS011;57161;43.136;24.706;2024-01-16T09:48:20;33.65;;;13.75;;
69878;SDS011;57161;43.136;24.706;2024-01-16T09:50:46;24.85;;;9.75;;
69878;SDS011;57161;43.136;24.706;2024-01-16T09:53:11;7.28;;;3.58;;
69878;SDS011;57161;43.136;24.706;2024-01-16T09:55:37;34.15;;;13.52;;
69878;SDS011;57161;43.136;24.706;2024-01-16T09:58:03;14.07;;;5.03;;
69878;SDS011;57161;43.136;24.706;2024-01-16T10:00:30;34.55;;;13.38;;
69878;SDS011;57161;43.136;24.706;2024-01-16T10:02:57;6.13;;;3.38;;
69878;SDS011;57161;43.136;24.706;2024-01-16T10:05:24;18.20;;;8.45;;
69878;SDS011;57161;43.136;24.706;2024-01-16T10:07:50;36.28;;;20.30;;
69878;SDS011;57161;43.136;24.706;2024-01-16T10:10:17;20.55;;;12.27;;
69878;SDS011;57161;43.136;24.706;2024-01-16T10:12:43;74.18;;;34.88;;
69878;SDS011;57161;43.136;24.706;2024-01-16T10:15:09;45.42;;;17.60;;
69878;SDS011;57161;43.136;24.706;2024-01-16T10:17:39;18.65;;;8.75;;
69878;SDS011;57161;43.136;24.706;2024-01-16T10:20:07;13.65;;;8.68;;
69878;SDS011;57161;43.136;24.706;2024-01-16T10:22:38;8.05;;;5.97;;
69878;SDS011;57161;43.136;24.706;2024-01-16T10:27:41;4.30;;;2.53;;
69878;SDS011;57161;43.136;24.706;2024-01-16T10:30:08;10.80;;;5.97;;
69878;SDS011;57161;43.136;24.706;2024-01-16T10:32:42;3.58;;;1.90;;
69878;SDS011;57161;43.136;24.706;2024-01-16T10:35:09;4.35;;;2.05;;
69878;SDS011;57161;43.136;24.706;2024-01-16T10:37:52;4.45;;;2.78;;
69878;SDS011;57161;43.136;24.706;2024-01-16T10:40:19;5.13;;;2.58;;
69878;SDS011;57161;43.136;24.706;2024-01-16T10:42:46;15.43;;;7.90;;
69878;SDS011;57161;43.136;24.706;2024-01-16T10:45:28;17.70;;;8.98;;
69878;SDS011;57161;43.136;24.706;2024-01-16T10:48:04;24.25;;;11.32;;
69878;SDS011;57161;43.136;24.706;2024-01-16T10:50:31;14.57;;;7.78;;
69878;SDS011;57161;43.136;24.706;2024-01-16T10:53:00;21.35;;;13.02;;
69878;SDS011;57161;43.136;24.706;2024-01-16T10:55:28;6.82;;;4.50;;
69878;SDS011;57161;43.136;24.706;2024-01-16T10:57:55;74.35;;;28.67;;
69878;SDS011;57161;43.136;24.706;2024-01-16T11:00:22;238.13;;;92.22;;
69878;SDS011;57161;43.136;24.706;2024-01-16T11:05:31;113.13;;;43.78;;
69878;SDS011;57161;43.136;24.706;2024-01-16T11:08:00;29.35;;;13.73;;
69878;SDS011;57161;43.136;24.706;2024-01-16T11:10:31;17.70;;;10.20;;
69878;SDS011;57161;43.136;24.706;2024-01-16T11:13:00;6.85;;;5.05;;
69878;SDS011;57161;43.136;24.706;2024-01-16T11:15:28;7.45;;;5.05;;
69878;SDS011;57161;43.136;24.706;2024-01-16T11:17:54;11.85;;;8.15;;
69878;SDS011;57161;43.136;24.706;2024-01-16T11:20:21;15.88;;;10.20;;
69878;SDS011;57161;43.136;24.706;2024-01-16T11:22:47;14.13;;;9.82;;
69878;SDS011;57161;43.136;24.706;2024-01-16T11:25:15;6.93;;;4.55;;
69878;SDS011;57161;43.136;24.706;2024-01-16T11:27:42;20.92;;;13.70;;
69878;SDS011;57161;43.136;24.706;2024-01-16T11:30:09;18.20;;;11.85;;
69878;SDS011;57161;43.136;24.706;2024-01-16T11:32:39;13.48;;;8.80;;
69878;SDS011;57161;43.136;24.706;2024-01-16T11:35:06;9.50;;;6.03;;
69878;SDS011;57161;43.136;24.706;2024-01-16T11:37:33;25.48;;;15.57;;
69878;SDS011;57161;43.136;24.706;2024-01-16T11:42:46;31.23;;;17.70;;
69878;SDS011;57161;43.136;24.706;2024-01-16T11:50:40;12.93;;;8.27;;
69878;SDS011;57161;43.136;24.706;2024-01-16T11:53:06;24.15;;;14.13;;
69878;SDS011;57161;43.136;24.706;2024-01-16T11:55:33;48.42;;;29.48;;
69878;SDS011;57161;43.136;24.706;2024-01-16T12:01:03;12.43;;;8.25;;
69878;SDS011;57161;43.136;24.706;2024-01-16T12:03:30;15.75;;;10.02;;
69878;SDS011;57161;43.136;24.706;2024-01-16T12:05:57;10.60;;;6.80;;
69878;SDS011;57161;43.136;24.706;2024-01-16T12:08:23;10.32;;;6.25;;
69878;SDS011;57161;43.136;24.706;2024-01-16T12:10:49;22.67;;;11.82;;
69878;SDS011;57161;43.136;24.706;2024-01-16T12:13:15;16.98;;;10.25;;
69878;SDS011;57161;43.136;24.706;2024-01-16T12:15:41;15.40;;;9.50;;
69878;SDS011;57161;43.136;24.706;2024-01-16T12:18:07;13.93;;;8.32;;
69878;SDS011;57161;43.136;24.706;2024-01-16T12:20:34;13.35;;;7.88;;
69878;SDS011;57161;43.136;24.706;2024-01-16T12:23:01;7.97;;;5.00;;
69878;SDS011;57161;43.136;24.706;2024-01-16T12:25:32;12.68;;;7.20;;
69878;SDS011;57161;43.136;24.706;2024-01-16T12:28:02;9.20;;;5.70;;
69878;SDS011;57161;43.136;24.706;2024-01-16T12:30:32;9.55;;;5.88;;
69878;SDS011;57161;43.136;24.706;2024-01-16T12:33:05;11.25;;;7.15;;
69878;SDS011;57161;43.136;24.706;2024-01-16T12:35:33;9.38;;;6.72;;
69878;SDS011;57161;43.136;24.706;2024-01-16T12:38:02;18.80;;;12.10;;
69878;SDS011;57161;43.136;24.706;2024-01-16T12:40:36;10.60;;;7.80;;
69878;SDS011;57161;43.136;24.706;2024-01-16T12:43:05;8.02;;;5.88;;
69878;SDS011;57161;43.136;24.706;2024-01-16T12:45:33;19.77;;;12.35;;
69878;SDS011;57161;43.136;24.706;2024-01-16T12:47:59;21.98;;;11.32;;
69878;SDS011;57161;43.136;24.706;2024-01-16T12:50:26;11.80;;;6.65;;
69878;SDS011;57161;43.136;24.706;2024-01-16T12:55:33;7.90;;;5.88;;
69878;SDS011;57161;43.136;24.706;2024-01-16T12:58:38;9.50;;;5.80;;
69878;SDS011;57161;43.136;24.706;2024-01-16T13:01:04;11.10;;;6.80;;
69878;SDS011;57161;43.136;24.706;2024-01-16T13:03:52;12.10;;;8.43;;
69878;SDS011;57161;43.136;24.706;2024-01-16T13:06:18;11.50;;;7.22;;
69878;SDS011;57161;43.136;24.706;2024-01-16T13:08:45;8.77;;;5.68;;
69878;SDS011;57161;43.136;24.706;2024-01-16T13:11:12;16.80;;;9.65;;
69878;SDS011;57161;43.136;24.706;2024-01-16T13:13:40;38.63;;;19.65;;
69878;SDS011;57161;43.136;24.706;2024-01-16T13:16:06;19.75;;;10.13;;
69878;SDS011;57161;43.136;24.706;2024-01-16T13:18:32;14.77;;;9.30;;
69878;SDS011;57161;43.136;24.706;2024-01-16T13:20:59;9.68;;;6.72;;
69878;SDS011;57161;43.136;24.706;2024-01-16T13:23:26;8.88;;;5.75;;
69878;SDS011;57161;43.136;24.706;2024-01-16T13:25:52;18.48;;;11.82;;
69878;SDS011;57161;43.136;24.706;2024-01-16T13:28:20;14.25;;;9.45;;
69878;SDS011;57161;43.136;24.706;2024-01-16T13:30:47;15.05;;;10.32;;
69878;SDS011;57161;43.136;24.706;2024-01-16T13:33:14;10.02;;;6.60;;
69878;SDS011;57161;43.136;24.706;2024-01-16T13:35:41;15.13;;;9.45;;
69878;SDS011;57161;43.136;24.706;2024-01-16T13:38:07;12.23;;;7.95;;
69878;SDS011;57161;43.136;24.706;2024-01-16T13:40:33;11.07;;;7.82;;
69878;SDS011;57161;43.136;24.706;2024-01-16T13:43:00;10.10;;;6.70;;
69878;SDS011;57161;43.136;24.706;2024-01-16T13:45:26;10.15;;;7.63;;
69878;SDS011;57161;43.136;24.706;2024-01-16T13:47:53;12.13;;;8.18;;
69878;SDS011;57161;43.136;24.706;2024-01-16T13:50:19;9.75;;;6.53;;
69878;SDS011;57161;43.136;24.706;2024-01-16T13:52:45;9.68;;;6.70;;
69878;SDS011;57161;43.136;24.706;2024-01-16T13:55:10;10.50;;;6.88;;
69878;SDS011;57161;43.136;24.706;2024-01-16T13:57:36;7.95;;;5.40;;
69878;SDS011;57161;43.136;24.706;2024-01-16T14:00:03;10.45;;;6.20;;
69878;SDS011;57161;43.136;24.706;2024-01-16T14:02:30;12.80;;;8.27;;
69878;SDS011;57161;43.136;24.706;2024-01-16T14:04:55;12.98;;;8.95;;
69878;SDS011;57161;43.136;24.706;2024-01-16T14:07:21;14.93;;;9.80;;
69878;SDS011;57161;43.136;24.706;2024-01-16T14:09:47;14.68;;;9.45;;
69878;SDS011;57161;43.136;24.706;2024-01-16T14:12:13;18.10;;;10.75;;
69878;SDS011;57161;43.136;24.706;2024-01-16T14:14:39;19.02;;;11.90;;
69878;SDS011;57161;43.136;24.706;2024-01-16T14:17:12;42.67;;;24.77;;
69878;SDS011;57161;43.136;24.706;2024-01-16T14:19:37;27.33;;;15.43;;
69878;SDS011;57161;43.136;24.706;2024-01-16T14:22:03;18.77;;;12.65;;
69878;SDS011;57161;43.136;24.706;2024-01-16T14:24:29;20.38;;;12.93;;
69878;SDS011;57161;43.136;24.706;2024-01-16T14:26:55;20.75;;;13.30;;
69878;SDS011;57161;43.136;24.706;2024-01-16T14:29:23;20.38;;;11.48;;
69878;SDS011;57161;43.136;24.706;2024-01-16T14:31:49;26.98;;;14.52;;
69878;SDS011;57161;43.136;24.706;2024-01-16T14:34:15;21.95;;;13.93;;